Time;durP1;ratioP1;P1;durP2;ratioP2;P2;SDS_P1;SDS_P2;PMS_P1;PMS_P2;Temp;Humidity;BMP_temperature;BMP_pressure;BME280_temperature;BME280_humidity;BME280_pressure;Samples;Min_cycle;Max_cycle;Signal;HPM_P1;HPM_P2
2022/10/25 00:02:20;;;;;;;7.03;1.37;;;;;;;14.52;57.96;100132.63;10075556;29;20250;-84
2022/10/25 00:07:42;;;;;;;6.43;1.17;;;;;;;14.30;59.11;100121.97;10074528;29;20248;-85
2022/10/25 00:13:04;;;;;;;6.87;1.40;;;;;;;13.70;61.38;100124.78;10056438;29;20230;-85
2022/10/25 00:18:26;;;;;;;8.60;1.53;;;;;;;14.51;58.55;100125.31;10049281;29;20684;-82
2022/10/25 00:23:49;;;;;;;6.18;1.08;;;;;;;14.30;58.42;100121.97;10049413;29;20255;-84
2022/10/25 00:29:11;;;;;;;6.37;1.07;;;;;;;14.46;57.95;100131.25;10062740;29;20855;-84
2022/10/25 00:34:22;;;;;;;2.37;0.80;;;;;;;14.00;59.95;100133.75;10062617;29;20589;-83
2022/10/25 00:39:45;;;;;;;6.93;1.30;;;;;;;14.01;60.12;100129.72;10061762;29;20260;-84
2022/10/25 00:45:21;;;;;;;5.57;1.20;;;;;;;13.73;59.96;100129.72;10062193;29;20287;-83
2022/10/25 00:50:48;;;;;;;5.90;1.17;;;;;;;14.40;59.22;100142.06;10076691;29;20274;-82
2022/10/25 00:56:21;;;;;;;5.63;1.20;;;;;;;13.32;61.38;100150.78;10061567;29;20183;-84
2022/10/25 01:01:44;;;;;;;4.60;1.17;;;;;;;13.58;61.07;100146.69;10051611;29;20227;-82
2022/10/25 01:07:06;;;;;;;5.03;1.13;;;;;;;13.96;59.72;100161.13;10061211;29;20218;-83
2022/10/25 01:12:28;;;;;;;7.03;1.43;;;;;;;14.09;59.43;100153.38;10073272;29;20251;-82
2022/10/25 01:17:58;;;;;;;6.87;0.83;;;;;;;14.09;59.39;100154.22;10048039;29;20530;-82
2022/10/25 01:23:23;;;;;;;5.97;1.35;;;;;;;13.77;60.23;100158.16;10060556;29;20596;-82
2022/10/25 01:29:25;;;;;;;5.10;0.87;;;;;;;13.55;60.73;100161.56;10061213;29;20286;-82
2022/10/25 01:34:55;;;;;;;7.00;1.10;;;;;;;14.13;59.30;100162.00;10055417;29;20195;-83
2022/10/25 01:40:26;;;;;;;9.77;1.45;;;;;;;14.12;58.79;100169.69;10068093;29;20251;-83
2022/10/25 01:46:13;;;;;;;6.47;1.20;;;;;;;14.37;58.37;100173.16;10067631;29;20286;-82
2022/10/25 01:51:36;;;;;;;8.00;0.90;;;;;;;13.86;58.98;100175.00;10041882;29;20198;-83
2022/10/25 01:57:28;;;;;;;7.53;0.93;;;;;;;14.24;58.33;100171.59;10054480;29;20191;-83
2022/10/25 02:03:08;;;;;;;7.97;1.23;;;;;;;14.36;58.40;100180.03;10054404;29;20194;-83
2022/10/25 02:08:34;;;;;;;4.97;0.70;;;;;;;14.14;58.49;100189.16;10066108;29;20266;-83
2022/10/25 02:14:14;;;;;;;5.35;1.15;;;;;;;14.99;55.37;100180.00;10079259;29;20279;-83
2022/10/25 02:19:40;;;;;;;6.30;1.05;;;;;;;14.31;57.03;100181.13;10066663;29;20580;-82
2022/10/25 02:25:03;;;;;;;4.23;0.77;;;;;;;13.95;58.45;100182.13;10066466;29;20190;-83
2022/10/25 02:30:26;;;;;;;3.67;0.97;;;;;;;15.12;55.03;100175.84;10052873;29;20210;-82
2022/10/25 02:36:12;;;;;;;5.87;1.10;;;;;;;14.32;57.25;100191.28;10066236;29;20194;-82
2022/10/25 02:41:34;;;;;;;6.73;0.90;;;;;;;13.83;58.73;100193.53;10065091;29;20202;-82
2022/10/25 02:46:57;;;;;;;3.33;1.10;;;;;;;13.59;60.03;100190.81;10065132;29;20627;-82
2022/10/25 02:52:19;;;;;;;4.47;0.90;;;;;;;14.91;56.67;100193.22;10065899;29;20195;-82
2022/10/25 02:57:41;;;;;;;7.00;0.70;;;;;;;14.44;56.94;100196.06;10065552;29;20542;-82
2022/10/25 03:03:03;;;;;;;6.00;1.00;;;;;;;14.04;58.17;100205.50;10064199;29;20218;-82
2022/10/25 03:08:25;;;;;;;6.77;1.13;;;;;;;14.60;56.42;100202.53;10059474;29;20271;-82
2022/10/25 03:13:32;;;;;;;4.90;1.30;;;;;;;14.89;55.55;100203.28;10064420;29;20223;-82
2022/10/25 03:18:58;;;;;;;5.00;0.90;;;;;;;14.27;58.38;100216.25;10051901;29;20195;-82
2022/10/25 03:24:20;;;;;;;9.37;1.30;;;;;;;15.15;55.14;100207.16;10051395;29;20203;-82
2022/10/25 03:29:42;;;;;;;4.03;1.10;;;;;;;14.80;56.38;100227.00;10063348;29;20282;-81
2022/10/25 03:35:05;;;;;;;6.83;1.30;;;;;;;14.66;56.58;100223.78;10064013;29;20195;-82
2022/10/25 03:40:28;;;;;;;4.33;0.77;;;;;;;14.86;55.11;100223.88;10065385;29;20287;-82
2022/10/25 03:45:50;;;;;;;6.47;0.97;;;;;;;14.29;58.04;100226.03;10063647;29;20262;-82
2022/10/25 03:51:12;;;;;;;5.37;0.87;;;;;;;14.59;55.92;100226.41;10062806;29;20207;-82
2022/10/25 03:56:34;;;;;;;3.63;0.67;;;;;;;13.60;60.97;100232.09;10062481;29;20493;-82
2022/10/25 04:01:56;;;;;;;4.43;0.80;;;;;;;14.07;59.80;100235.16;10063261;29;20194;-83
2022/10/25 04:07:18;;;;;;;5.83;1.00;;;;;;;14.37;58.96;100232.72;10048222;29;20294;-82
2022/10/25 04:12:40;;;;;;;8.25;1.15;;;;;;;14.38;58.83;100234.34;10075274;29;20230;-82
2022/10/25 04:17:51;;;;;;;6.38;1.02;;;;;;;13.81;60.63;100249.72;10032650;29;20191;-81
2022/10/25 04:23:13;;;;;;;5.73;1.27;;;;;;;13.97;60.49;100249.78;10036631;29;20262;-81
2022/10/25 04:28:35;;;;;;;5.57;0.85;;;;;;;13.80;60.98;100262.25;10045570;29;20214;-80
2022/10/25 04:33:57;;;;;;;3.25;0.73;;;;;;;13.96;59.92;100256.63;10045809;29;20203;-81
2022/10/25 04:39:19;;;;;;;5.13;0.90;;;;;;;13.93;60.19;100263.88;10068096;29;20207;-81
2022/10/25 04:44:41;;;;;;;9.40;1.37;;;;;;;13.32;61.46;100275.34;10054396;29;20269;-83
2022/10/25 04:50:05;;;;;;;3.53;0.93;;;;;;;14.88;57.29;100276.22;10049544;29;20250;-82
2022/10/25 04:55:27;;;;;;;5.90;1.33;;;;;;;14.20;58.77;100281.25;10055702;29;20291;-81
2022/10/25 05:00:49;;;;;;;6.23;1.10;;;;;;;14.20;58.61;100278.44;10054861;29;20235;-81
2022/10/25 05:06:17;;;;;;;5.73;0.93;;;;;;;13.80;60.24;100293.41;10048295;29;20597;-81
2022/10/25 05:11:39;;;;;;;7.67;0.90;;;;;;;14.53;57.47;100276.09;10036434;29;20313;-78
2022/10/25 05:17:01;;;;;;;4.33;0.90;;;;;;;13.91;58.78;100288.91;10069160;29;20247;-80
2022/10/25 05:22:24;;;;;;;4.40;0.90;;;;;;;14.12;58.80;100293.56;10029597;29;20283;-80
2022/10/25 05:27:46;;;;;;;5.97;1.10;;;;;;;13.57;60.48;100303.59;10071518;29;20234;-83
2022/10/25 05:33:08;;;;;;;6.67;1.17;;;;;;;14.31;57.00;100288.88;10063742;29;20259;-82
2022/10/25 05:38:31;;;;;;;6.63;1.48;;;;;;;14.29;57.65;100281.91;10067643;29;20198;-82
2022/10/25 05:43:53;;;;;;;7.23;1.57;;;;;;;14.29;58.40;100302.59;10047650;29;20222;-83
2022/10/25 05:49:15;;;;;;;8.47;1.83;;;;;;;14.38;57.33;100313.75;10067359;29;20230;-82
2022/10/25 05:54:37;;;;;;;4.00;1.30;;;;;;;14.41;57.37;100330.88;10071337;29;20198;-82
2022/10/25 05:59:59;;;;;;;5.40;1.60;;;;;;;14.19;58.04;100334.28;10056378;29;20195;-82
2022/10/25 06:05:21;;;;;;;5.67;1.87;;;;;;;13.65;59.41;100347.97;10054122;29;20271;-82
2022/10/25 06:10:43;;;;;;;8.00;1.57;;;;;;;14.31;57.66;100337.06;10072673;29;20234;-81
2022/10/25 06:15:46;;;;;;;5.83;2.03;;;;;;;13.51;60.30;100358.84;10072046;29;20248;-81
2022/10/25 06:21:13;;;;;;;4.90;1.80;;;;;;;13.92;58.27;100352.88;10071915;29;20227;-81
2022/10/25 06:26:35;;;;;;;5.97;1.63;;;;;;;13.67;59.91;100366.28;10053670;29;20271;-83
2022/10/25 06:31:57;;;;;;;6.65;1.65;;;;;;;14.59;56.71;100359.72;10053832;29;20194;-81
2022/10/25 06:37:20;;;;;;;10.07;2.40;;;;;;;14.03;58.13;100371.06;10048671;29;20199;-83
2022/10/25 06:42:42;;;;;;;6.63;1.80;;;;;;;14.03;58.03;100385.25;10065331;29;20611;-83
2022/10/25 06:48:04;;;;;;;3.80;1.73;;;;;;;13.72;59.70;100394.34;10051026;29;20317;-82
2022/10/25 06:53:26;;;;;;;8.07;2.30;;;;;;;13.94;59.23;100387.31;10069137;29;20286;-82
2022/10/25 06:58:48;;;;;;;7.07;1.30;;;;;;;13.96;59.24;100393.47;10058849;29;20203;-83
2022/10/25 07:04:10;;;;;;;7.03;1.83;;;;;;;13.55;61.48;100405.09;10064571;29;20270;-81
2022/10/25 07:09:32;;;;;;;7.47;2.00;;;;;;;13.61;60.78;100415.00;10046677;29;20300;-83
2022/10/25 07:14:54;;;;;;;11.63;1.93;;;;;;;13.60;61.59;100421.84;10058346;29;20302;-82
2022/10/25 07:20:17;;;;;;;8.87;2.37;;;;;;;14.67;57.20;100438.19;10058681;29;20490;-82
2022/10/25 07:25:39;;;;;;;4.70;1.60;;;;;;;14.09;58.55;100433.97;10061785;29;20210;-82
2022/10/25 07:31:01;;;;;;;6.37;1.30;;;;;;;13.84;58.54;100453.00;10057614;29;20223;-83
2022/10/25 07:36:23;;;;;;;5.93;1.20;;;;;;;14.38;58.04;100449.88;10045130;29;20194;-83
2022/10/25 07:41:45;;;;;;;9.77;1.50;;;;;;;13.74;58.67;100454.28;10058995;29;20243;-83
2022/10/25 07:47:07;;;;;;;5.13;1.23;;;;;;;14.24;57.91;100466.44;10074966;29;20218;-82
2022/10/25 07:52:29;;;;;;;7.80;1.50;;;;;;;14.82;56.24;100458.50;10062820;29;20210;-83
2022/10/25 07:57:51;;;;;;;6.25;1.23;;;;;;;14.07;58.35;100467.53;10042627;29;20310;-83
2022/10/25 08:03:14;;;;;;;6.40;2.40;;;;;;;14.44;57.27;100465.47;10070625;29;20202;-83
2022/10/25 08:08:36;;;;;;;3.45;1.15;;;;;;;14.20;57.61;100454.97;10057508;29;20250;-82
2022/10/25 08:13:58;;;;;;;9.75;1.63;;;;;;;14.30;57.91;100465.03;10068989;29;20294;-83
2022/10/25 08:19:20;;;;;;;4.50;1.10;;;;;;;13.78;59.30;100464.94;10080837;29;20255;-83
2022/10/25 08:24:42;;;;;;;11.33;1.63;;;;;;;14.21;58.22;100465.13;10061326;29;20541;-83
2022/10/25 08:30:05;;;;;;;4.10;1.60;;;;;;;14.59;57.25;100472.38;10035034;29;20230;-82
2022/10/25 08:35:27;;;;;;;4.17;1.60;;;;;;;14.30;57.94;100470.69;10076903;29;20211;-82
2022/10/25 08:41:02;;;;;;;5.20;1.52;;;;;;;14.46;56.15;100468.72;10047862;29;20632;-83
2022/10/25 08:46:41;;;;;;;2.03;1.05;;;;;;;14.61;55.85;100470.81;10064880;29;20259;-84
2022/10/25 08:52:04;;;;;;;5.20;1.47;;;;;;;14.29;56.13;100474.69;10048759;29;20616;-83
2022/10/25 08:57:28;;;;;;;4.10;1.30;;;;;;;14.28;56.40;100482.38;10041315;29;20244;-84
2022/10/25 09:02:58;;;;;;;6.78;1.55;;;;;;;15.29;53.67;100481.28;10041338;29;20214;-82
2022/10/25 09:08:28;;;;;;;2.90;1.30;;;;;;;14.84;54.50;100487.34;10065898;29;20238;-83
2022/10/25 09:13:56;;;;;;;2.83;0.90;;;;;;;15.23;52.84;100485.59;10059117;29;20562;-82
2022/10/25 09:19:34;;;;;;;6.65;1.65;;;;;;;14.75;54.60;100502.44;10049743;29;21346;-82
2022/10/25 09:24:58;;;;;;;2.92;1.20;;;;;;;13.82;56.32;100511.19;10061734;29;20239;-82
2022/10/25 09:30:20;;;;;;;6.73;1.20;;;;;;;14.41;55.14;100518.03;10065905;29;20546;-81
2022/10/25 09:35:52;;;;;;;3.70;0.87;;;;;;;14.68;54.28;100510.75;10060371;29;20255;-81
2022/10/25 09:41:34;;;;;;;4.70;0.83;;;;;;;14.94;53.32;100516.03;10057516;29;20239;-83
2022/10/25 09:47:02;;;;;;;6.77;1.60;;;;;;;15.60;52.23;100514.63;10072470;29;20234;-83
2022/10/25 09:52:50;;;;;;;7.30;1.60;;;;;;;15.19;53.54;100519.56;10077728;29;20612;-81
2022/10/25 09:57:58;;;;;;;6.22;1.10;;;;;;;15.83;51.00;100518.47;10051811;29;20210;-82
2022/10/25 10:03:21;;;;;;;8.10;1.20;;;;;;;15.08;52.72;100541.16;10066965;29;20267;-82
2022/10/25 10:08:49;;;;;;;4.40;0.90;;;;;;;15.50;51.56;100533.84;10068585;29;20314;-81
2022/10/25 10:14:27;;;;;;;4.20;1.25;;;;;;;15.25;53.32;100540.00;10053488;29;20230;-80
2022/10/25 10:20:10;;;;;;;6.40;1.33;;;;;;;14.89;52.73;100552.31;10040060;29;20202;-81
2022/10/25 10:25:32;;;;;;;5.60;1.23;;;;;;;15.64;51.12;100553.28;10086777;29;20574;-81
2022/10/25 10:30:56;;;;;;;4.78;0.77;;;;;;;15.07;51.92;100565.06;10103431;29;20230;-81
2022/10/25 10:36:29;;;;;;;7.28;1.33;;;;;;;16.17;49.56;100548.97;10080085;29;20266;-82
2022/10/25 10:42:03;;;;;;;5.40;0.93;;;;;;;15.44;51.32;100572.22;10050288;29;20493;-82
2022/10/25 10:47:31;;;;;;;5.03;0.90;;;;;;;16.07;50.20;100555.22;10068079;29;20262;-82
2022/10/25 10:52:53;;;;;;;8.00;1.50;;;;;;;15.16;51.44;100571.38;10062442;29;20338;-82
2022/10/25 10:58:16;;;;;;;4.32;0.88;;;;;;;16.26;49.35;100562.22;10062057;29;20186;-83
2022/10/25 11:03:41;;;;;;;7.30;1.13;;;;;;;16.63;48.63;100563.53;10046959;29;20199;-82
2022/10/25 11:09:22;;;;;;;5.78;1.08;;;;;;;16.03;49.31;100568.53;10062770;29;20644;-82
2022/10/25 11:14:44;;;;;;;7.57;1.17;;;;;;;15.52;50.52;100579.75;10050486;29;20289;-83
2022/10/25 11:20:24;;;;;;;8.88;1.42;;;;;;;15.89;49.94;100576.69;10032357;29;20211;-81
2022/10/25 11:26:14;;;;;;;4.07;0.93;;;;;;;15.37;50.45;100576.88;10058962;29;20239;-83
2022/10/25 11:32:03;;;;;;;2.72;0.73;;;;;;;16.07;49.06;100582.84;10063261;29;20226;-83
2022/10/25 11:37:41;;;;;;;2.63;0.63;;;;;;;15.55;49.81;100583.06;10063368;29;20222;-83
2022/10/25 11:43:28;;;;;;;4.53;0.80;;;;;;;15.48;49.76;100575.97;10025655;29;20267;-82
2022/10/25 11:49:08;;;;;;;9.18;0.77;;;;;;;17.02;46.76;100567.28;10033100;29;20252;-83
2022/10/25 11:54:40;;;;;;;5.65;1.27;;;;;;;16.28;48.54;100566.34;10070123;29;20238;-83
2022/10/25 12:00:17;;;;;;;8.00;1.33;;;;;;;16.10;47.42;100565.88;10024755;29;20604;-83
2022/10/25 12:05:36;;;;;;;4.35;0.80;;;;;;;15.95;48.52;100575.22;10061781;29;20290;-83
2022/10/25 12:11:05;;;;;;;4.60;0.70;;;;;;;14.95;49.34;100570.78;10059684;29;20218;-83
2022/10/25 12:16:28;;;;;;;3.93;0.70;;;;;;;15.79;47.56;100572.38;10060865;29;20508;-83
2022/10/25 12:21:56;;;;;;;5.63;0.50;;;;;;;15.86;46.25;100571.75;10034201;29;20280;-84
2022/10/25 12:27:21;;;;;;;3.55;1.10;;;;;;;16.35;46.26;100565.69;10059711;29;20199;-83
2022/10/25 12:32:49;;;;;;;3.03;0.65;;;;;;;15.95;47.47;100568.72;10056768;29;20340;-80
2022/10/25 12:38:16;;;;;;;1.38;0.50;;;;;;;16.02;46.48;100561.19;10061894;29;20206;-82
2022/10/25 12:44:00;;;;;;;6.47;0.90;;;;;;;17.24;44.56;100551.44;10060332;29;20255;-83
2022/10/25 12:49:32;;;;;;;5.50;0.60;;;;;;;16.15;45.52;100573.28;10022672;29;20278;-82
2022/10/25 12:54:57;;;;;;;3.00;0.60;;;;;;;16.45;44.98;100565.13;10041156;29;20299;-82
2022/10/25 13:00:21;;;;;;;5.25;0.80;;;;;;;16.87;43.60;100563.25;10071057;29;20633;-82
2022/10/25 13:06:01;;;;;;;4.57;0.68;;;;;;;17.28;43.55;100560.91;10066259;29;20193;-82
2022/10/25 13:11:31;;;;;;;2.60;0.50;;;;;;;17.20;42.50;100557.06;10065715;29;20329;-82
2022/10/25 13:17:15;;;;;;;5.78;0.95;;;;;;;16.79;44.57;100552.09;10045640;29;20206;-83
2022/10/25 13:22:38;;;;;;;2.88;0.30;;;;;;;16.44;44.10;100549.25;10066191;29;20190;-82
2022/10/25 13:28:09;;;;;;;3.87;0.80;;;;;;;16.13;44.95;100568.00;10049017;29;20222;-81
2022/10/25 13:33:32;;;;;;;3.90;0.63;;;;;;;15.73;46.53;100561.66;10067277;29;20278;-81
2022/10/25 13:39:04;;;;;;;5.28;0.75;;;;;;;15.88;46.46;100571.38;10054525;29;20202;-82
2022/10/25 13:44:26;;;;;;;3.53;0.93;;;;;;;16.19;46.23;100563.66;10061248;29;20617;-80
2022/10/25 13:49:48;;;;;;;2.92;0.60;;;;;;;16.50;45.71;100562.00;10049228;29;20262;-82
2022/10/25 13:55:14;;;;;;;3.58;0.77;;;;;;;16.87;44.92;100566.09;10045923;29;20286;-81
2022/10/25 14:00:39;;;;;;;3.05;0.50;;;;;;;17.23;44.11;100561.19;10059334;29;20305;-83
2022/10/25 14:06:07;;;;;;;5.20;0.68;;;;;;;17.19;45.21;100560.28;10063334;29;20236;-82
2022/10/25 14:11:32;;;;;;;5.43;0.80;;;;;;;16.32;46.14;100572.13;10050538;29;20283;-82
2022/10/25 14:17:25;;;;;;;2.73;0.63;;;;;;;16.73;45.59;100565.78;10071002;29;20941;-82
2022/10/25 14:22:53;;;;;;;7.43;1.20;;;;;;;16.11;47.28;100563.84;10070965;29;20270;-84
2022/10/25 14:28:26;;;;;;;2.20;0.60;;;;;;;17.21;45.07;100555.03;10046928;29;20222;-82
2022/10/25 14:33:53;;;;;;;4.88;1.30;;;;;;;16.25;47.17;100554.88;10057542;29;20294;-82
2022/10/25 14:39:25;;;;;;;4.75;1.38;;;;;;;16.70;46.16;100560.81;10056891;29;20250;-83
2022/10/25 14:44:49;;;;;;;3.38;0.98;;;;;;;16.58;47.06;100563.81;10047763;29;20210;-83
2022/10/25 14:50:14;;;;;;;4.65;1.50;;;;;;;16.75;46.12;100554.03;10044914;29;20278;-85
2022/10/25 14:55:36;;;;;;;4.20;1.50;;;;;;;17.17;44.95;100557.84;10038865;29;20242;-82
2022/10/25 15:01:00;;;;;;;3.13;1.38;;;;;;;16.71;46.12;100562.47;10054856;29;20222;-84
2022/10/25 15:06:24;;;;;;;3.47;1.15;;;;;;;15.99;46.74;100559.09;10070584;29;20202;-86
2022/10/25 15:12:11;;;;;;;4.33;1.30;;;;;;;16.26;46.72;100550.84;10049186;29;20254;-85
2022/10/25 15:17:34;;;;;;;3.23;1.13;;;;;;;16.26;46.33;100545.16;10050913;29;20267;-84
2022/10/25 15:23:22;;;;;;;9.60;1.15;;;;;;;16.87;44.81;100549.03;10066814;29;20219;-85
2022/10/25 15:28:50;;;;;;;3.67;1.00;;;;;;;16.57;45.81;100545.06;10049688;29;20310;-84
2022/10/25 15:34:19;;;;;;;2.45;1.15;;;;;;;16.85;44.81;100536.34;10040740;29;20254;-85
2022/10/25 15:39:41;;;;;;;3.50;1.13;;;;;;;16.02;46.57;100541.28;10063934;29;20283;-86
2022/10/25 15:44:50;;;;;;;4.90;0.93;;;;;;;16.26;46.10;100533.78;10064878;29;20278;-86
2022/10/25 15:50:15;;;;;;;2.00;0.60;;;;;;;16.36;45.64;100533.22;10051822;29;20644;-87
2022/10/25 15:55:37;;;;;;;2.03;0.70;;;;;;;16.56;45.41;100529.19;10034796;29;20376;-86
2022/10/25 16:00:59;;;;;;;4.63;0.83;;;;;;;16.81;45.00;100527.72;10065095;29;20696;-86
2022/10/25 16:06:21;;;;;;;2.50;1.25;;;;;;;16.46;45.94;100524.91;10057821;29;20233;-85
2022/10/25 16:11:47;;;;;;;5.60;1.20;;;;;;;16.11;47.17;100526.91;10051781;29;20258;-86
2022/10/25 16:17:10;;;;;;;5.00;1.10;;;;;;;16.23;45.68;100528.84;10053350;29;20256;-84
2022/10/25 16:22:33;;;;;;;7.67;1.57;;;;;;;16.44;45.32;100540.72;10041549;29;20234;-87
2022/10/25 16:27:56;;;;;;;6.47;1.85;;;;;;;16.16;46.00;100535.94;10039408;29;20243;-87
2022/10/25 16:33:18;;;;;;;3.10;0.90;;;;;;;15.84;45.94;100545.72;10055791;29;20613;-83
2022/10/25 16:38:40;;;;;;;5.18;1.83;;;;;;;15.57;46.98;100547.44;10034458;29;20268;-90
2022/10/25 16:44:02;;;;;;;5.75;1.13;;;;;;;15.21;46.90;100545.59;10043757;29;20238;-83
2022/10/25 16:49:24;;;;;;;2.67;0.70;;;;;;;15.66;45.97;100548.06;10034636;29;20722;-82
2022/10/25 16:54:46;;;;;;;6.05;1.27;;;;;;;16.31;44.32;100533.47;10054218;29;20229;-83
2022/10/25 17:00:10;;;;;;;5.83;1.40;;;;;;;15.82;44.87;100536.72;10038197;29;20230;-86
2022/10/25 17:05:32;;;;;;;2.53;1.40;;;;;;;15.99;44.83;100536.34;10038332;29;20809;-82
2022/10/25 17:10:54;;;;;;;4.45;1.83;;;;;;;15.98;44.48;100531.84;10039171;29;20691;-83
2022/10/25 17:16:16;;;;;;;7.00;1.85;;;;;;;15.73;45.54;100538.94;10034842;29;20230;-88
2022/10/25 17:21:39;;;;;;;5.45;1.20;;;;;;;15.44;46.95;100525.94;10039502;29;20609;-82
2022/10/25 17:27:01;;;;;;;3.80;1.48;;;;;;;15.15;46.73;100535.66;10038431;29;20300;-80
2022/10/25 17:32:05;;;;;;;5.83;1.70;;;;;;;15.45;46.86;100534.09;10035778;29;20254;-82
2022/10/25 17:37:27;;;;;;;5.35;3.80;;;;;;;15.11;47.71;100537.56;10030781;29;20234;-85
2022/10/25 17:42:50;;;;;;;4.13;2.50;;;;;;;14.84;48.18;100544.09;10022441;29;20234;-87
2022/10/25 17:48:13;;;;;;;5.50;3.03;;;;;;;14.92;47.64;100537.44;10029828;29;20235;-85
2022/10/25 17:53:35;;;;;;;5.72;2.25;;;;;;;14.93;48.02;100539.09;10044105;29;20257;-84
2022/10/25 17:58:59;;;;;;;4.40;2.23;;;;;;;15.05;47.73;100536.19;10034588;29;20242;-87
2022/10/25 18:04:21;;;;;;;6.35;1.95;;;;;;;14.76;48.40;100541.03;10038459;29;20234;-85
2022/10/25 18:09:43;;;;;;;4.20;1.80;;;;;;;14.45;49.21;100540.84;10055496;29;20270;-85
2022/10/25 18:15:05;;;;;;;4.18;2.45;;;;;;;14.40;49.69;100538.25;10044544;29;20265;-82
2022/10/25 18:20:29;;;;;;;4.43;1.90;;;;;;;14.31;49.81;100546.06;10049924;29;20246;-88
2022/10/25 18:25:52;;;;;;;7.63;2.03;;;;;;;14.50;49.12;100534.06;10058594;29;20284;-87
2022/10/25 18:30:59;;;;;;;2.72;2.30;;;;;;;14.71;48.63;100537.59;10030154;29;20250;-87
2022/10/25 18:36:22;;;;;;;5.78;3.00;;;;;;;14.27;49.74;100533.78;10054738;29;20282;-87
2022/10/25 18:41:47;;;;;;;5.47;1.55;;;;;;;14.45;49.85;100532.34;10036560;29;20199;-89
2022/10/25 18:47:10;;;;;;;8.70;2.60;;;;;;;14.54;48.95;100524.50;10069589;29;20198;-87
2022/10/25 18:52:32;;;;;;;4.23;2.17;;;;;;;14.25;49.84;100531.28;10050414;29;20259;-87
2022/10/25 18:57:55;;;;;;;7.55;2.80;;;;;;;13.83;50.85;100518.50;10043689;29;20214;-88
2022/10/25 19:03:17;;;;;;;9.70;3.60;;;;;;;14.20;50.45;100530.72;10053262;29;20195;-88
2022/10/25 19:08:40;;;;;;;6.93;4.20;;;;;;;13.92;50.88;100534.22;10059648;29;20263;-87
2022/10/25 19:14:03;;;;;;;6.40;2.43;;;;;;;13.59;51.14;100522.97;10052294;29;20299;-88
2022/10/25 19:19:27;;;;;;;9.73;3.17;;;;;;;13.90;50.98;100525.25;10055561;29;20210;-86
2022/10/25 19:24:49;;;;;;;4.47;2.55;;;;;;;13.97;50.67;100516.97;10049826;29;20682;-88
2022/10/25 19:29:57;;;;;;;5.53;2.43;;;;;;;13.14;52.63;100517.31;10035084;29;20305;-87
2022/10/25 19:35:20;;;;;;;9.57;2.90;;;;;;;13.44;52.22;100517.16;10046857;29;20238;-88
2022/10/25 19:40:44;;;;;;;6.07;2.50;;;;;;;13.04;53.57;100514.88;10047771;29;20234;-84
2022/10/25 19:46:06;;;;;;;4.83;3.37;;;;;;;13.20;52.91;100510.25;10063045;29;20541;-88
2022/10/25 19:51:29;;;;;;;7.57;3.67;;;;;;;13.20;53.14;100507.44;10060235;29;20639;-83
2022/10/25 19:56:51;;;;;;;9.77;3.83;;;;;;;13.46;52.54;100497.81;10046726;29;20206;-85
2022/10/25 20:02:13;;;;;;;7.87;3.53;;;;;;;13.39;52.65;100498.41;10037965;29;20497;-85
2022/10/25 20:07:37;;;;;;;6.63;3.60;;;;;;;13.49;52.16;100488.63;10024066;29;20263;-86
2022/10/25 20:12:59;;;;;;;6.17;3.03;;;;;;;13.11;53.15;100495.34;10061474;29;20263;-85
2022/10/25 20:18:23;;;;;;;6.70;4.00;;;;;;;13.09;53.08;100494.88;10045150;29;20210;-85
2022/10/25 20:23:49;;;;;;;6.60;3.43;;;;;;;12.93;53.53;100485.38;10061942;29;20251;-84
2022/10/25 20:29:22;;;;;;;5.57;2.97;;;;;;;12.47;54.90;100494.94;10046365;29;20390;-84
2022/10/25 20:34:44;;;;;;;9.73;3.80;;;;;;;12.75;54.21;100493.22;10043264;29;20254;-84
2022/10/25 20:40:04;;;;;;;10.13;4.00;;;;;;;12.17;56.13;100497.78;10031688;29;20196;-84
2022/10/25 20:45:28;;;;;;;6.00;2.63;;;;;;;12.23;56.83;100495.59;10061455;29;20307;-85
2022/10/25 20:50:52;;;;;;;7.33;3.23;;;;;;;12.41;55.42;100494.31;10047225;29;20454;-85
2022/10/25 20:56:18;;;;;;;8.17;3.40;;;;;;;12.50;55.53;100497.94;10015142;29;20678;-85
2022/10/25 21:01:40;;;;;;;6.87;3.10;;;;;;;12.25;56.40;100504.56;10061131;29;20207;-83
2022/10/25 21:07:02;;;;;;;7.87;3.40;;;;;;;12.37;56.50;100501.84;10055973;29;20203;-85
2022/10/25 21:12:25;;;;;;;5.67;2.67;;;;;;;12.32;56.14;100504.84;10055638;29;20385;-84
2022/10/25 21:17:48;;;;;;;12.60;3.07;;;;;;;12.14;56.92;100511.75;10045517;29;20611;-85
2022/10/25 21:23:10;;;;;;;10.67;3.33;;;;;;;12.05;57.34;100505.34;10055593;29;20276;-86
2022/10/25 21:28:35;;;;;;;7.97;2.80;;;;;;;11.98;56.92;100492.59;10064481;29;20214;-84
2022/10/25 21:33:59;;;;;;;5.60;2.57;;;;;;;12.06;57.21;100502.19;10057751;29;20290;-84
2022/10/25 21:39:22;;;;;;;5.77;2.60;;;;;;;12.28;56.19;100492.56;10045472;29;20489;-85
2022/10/25 21:44:44;;;;;;;7.30;2.20;;;;;;;12.48;56.03;100479.66;10048103;29;20243;-84
2022/10/25 21:50:08;;;;;;;10.13;2.50;;;;;;;12.17;56.38;100480.00;10064043;29;20489;-85
2022/10/25 21:55:30;;;;;;;6.20;2.00;;;;;;;12.49;55.19;100468.00;10066449;29;20202;-85
2022/10/25 22:00:52;;;;;;;5.03;2.13;;;;;;;12.20;55.95;100465.19;10030445;29;20274;-85
2022/10/25 22:06:18;;;;;;;4.67;2.10;;;;;;;12.09;56.57;100467.59;10033540;29;20207;-86
2022/10/25 22:11:40;;;;;;;5.03;1.50;;;;;;;12.37;55.82;100469.94;10066573;29;20289;-84
2022/10/25 22:17:03;;;;;;;6.00;1.70;;;;;;;12.02;56.19;100461.66;10034843;29;20214;-85
2022/10/25 22:22:25;;;;;;;6.17;1.93;;;;;;;11.86;56.65;100458.59;10040159;29;20206;-85
2022/10/25 22:27:47;;;;;;;6.27;2.27;;;;;;;12.12;55.75;100461.28;10076020;29;20235;-86
2022/10/25 22:33:09;;;;;;;5.40;2.20;;;;;;;12.23;55.32;100456.88;10072218;29;20246;-86
2022/10/25 22:38:32;;;;;;;7.23;1.97;;;;;;;12.19;55.41;100455.06;10075928;29;20206;-86
2022/10/25 22:43:54;;;;;;;7.33;2.07;;;;;;;12.36;54.58;100448.50;10078328;29;20195;-85
2022/10/25 22:49:18;;;;;;;3.53;2.00;;;;;;;11.81;56.21;100450.34;10061419;29;20245;-84
2022/10/25 22:54:40;;;;;;;5.33;2.33;;;;;;;12.24;54.59;100446.38;10049372;29;20620;-85
2022/10/25 23:00:03;;;;;;;4.13;2.40;;;;;;;11.37;57.52;100450.84;10046537;29;20203;-85
2022/10/25 23:05:25;;;;;;;5.57;2.33;;;;;;;12.18;54.73;100453.41;10047646;29;20206;-86
2022/10/25 23:10:47;;;;;;;2.50;1.73;;;;;;;12.05;54.74;100452.50;10043647;29;20230;-86
2022/10/25 23:16:10;;;;;;;5.00;1.63;;;;;;;12.26;54.10;100444.03;10045068;29;20203;-84
2022/10/25 23:21:32;;;;;;;7.77;1.80;;;;;;;12.06;55.36;100450.50;10060888;29;20202;-86
2022/10/25 23:26:54;;;;;;;8.13;2.03;;;;;;;12.15;54.37;100445.59;10045297;29;20214;-85
2022/10/25 23:32:18;;;;;;;5.50;2.23;;;;;;;12.29;54.66;100443.34;10057253;29;20227;-86
2022/10/25 23:37:40;;;;;;;5.70;2.33;;;;;;;12.62;53.17;100441.44;10060744;29;20203;-86
2022/10/25 23:43:02;;;;;;;5.70;2.33;;;;;;;12.05;54.42;100440.38;10063279;29;20206;-86
2022/10/25 23:48:24;;;;;;;5.90;1.97;;;;;;;12.39;53.75;100437.28;10060072;29;20199;-85
2022/10/25 23:53:47;;;;;;;6.63;2.20;;;;;;;12.26;53.96;100432.72;10069831;29;20270;-86
2022/10/25 23:59:09;;;;;;;4.63;1.80;;;;;;;12.54;53.47;100422.53;10059303;29;20222;-85
